Time;durP1;ratioP1;P1;durP2;ratioP2;P2;SDS_P1;SDS_P2;PMS_P1;PMS_P2;Temp;Humidity;BMP_temperature;BMP_pressure;BME280_temperature;BME280_humidity;BME280_pressure;Samples;Min_cycle;Max_cycle;Signal;HPM_P1;HPM_P2
2022/05/16 00:02:19;;;;;;;1.42;1.20;;;17.40;66.00;;;;;;5009654;28;20197;-60
2022/05/16 00:04:51;;;;;;;1.75;1.30;;;17.40;65.90;;;;;;5009854;28;20189;-61
2022/05/16 00:07:23;;;;;;;1.17;1.02;;;17.40;65.90;;;;;;5008054;28;20205;-60
2022/05/16 00:09:53;;;;;;;1.48;1.20;;;17.40;65.80;;;;;;5009937;28;20209;-60
2022/05/16 00:12:24;;;;;;;3.15;1.20;;;17.40;65.70;;;;;;5009143;28;20212;-60
2022/05/16 00:14:56;;;;;;;1.75;1.30;;;17.40;65.60;;;;;;5009161;28;20286;-60
2022/05/16 00:17:27;;;;;;;2.15;1.15;;;17.40;65.60;;;;;;5008975;28;20267;-59
2022/05/16 00:19:57;;;;;;;2.30;1.10;;;17.40;65.50;;;;;;5009995;28;20224;-60
2022/05/16 00:22:29;;;;;;;1.42;1.10;;;17.40;65.50;;;;;;5009040;28;20193;-60
2022/05/16 00:24:59;;;;;;;1.75;1.20;;;17.40;65.50;;;;;;5008370;28;20197;-60
2022/05/16 00:27:34;;;;;;;1.30;1.10;;;17.40;65.40;;;;;;5010074;28;20594;-61
2022/05/16 00:30:10;;;;;;;1.15;0.90;;;17.50;65.60;;;;;;4995541;28;20709;-61
2022/05/16 00:32:40;;;;;;;1.50;1.08;;;17.50;65.60;;;;;;4992970;28;20197;-61
2022/05/16 00:35:12;;;;;;;1.00;0.90;;;17.50;65.70;;;;;;4992521;28;20654;-61
2022/05/16 00:37:43;;;;;;;1.30;1.20;;;17.50;65.70;;;;;;4992341;28;20236;-61
2022/05/16 00:40:15;;;;;;;2.15;1.20;;;17.50;65.70;;;;;;4991805;28;20225;-61
2022/05/16 00:42:46;;;;;;;1.23;1.00;;;17.50;65.70;;;;;;4994608;28;20251;-61
2022/05/16 00:45:20;;;;;;;1.20;0.93;;;17.50;65.70;;;;;;4991990;28;20197;-61
2022/05/16 00:47:50;;;;;;;1.30;1.20;;;17.60;65.70;;;;;;4992296;28;20267;-61
2022/05/16 00:50:21;;;;;;;1.50;1.02;;;17.60;65.70;;;;;;4992477;28;20760;-61
2022/05/16 00:52:53;;;;;;;1.20;1.10;;;17.60;65.70;;;;;;4992121;28;20330;-61
2022/05/16 00:55:28;;;;;;;1.35;0.95;;;17.60;65.60;;;;;;4996116;28;20193;-60
2022/05/16 00:58:06;;;;;;;1.73;1.10;;;17.60;65.50;;;;;;5012037;28;20196;-61
2022/05/16 01:00:40;;;;;;;1.40;1.10;;;17.60;65.50;;;;;;4998247;28;20275;-61
2022/05/16 01:05:59;;;;;;;1.88;1.30;;;17.70;65.70;;;;;;4992397;28;20248;-61
2022/05/16 01:08:31;;;;;;;1.33;1.00;;;17.70;65.80;;;;;;4998342;28;20228;-61
2022/05/16 01:11:05;;;;;;;1.02;0.98;;;17.70;65.80;;;;;;5007987;28;20298;-61
2022/05/16 01:13:35;;;;;;;1.70;1.17;;;17.70;65.80;;;;;;5008601;28;20227;-61
2022/05/16 01:16:08;;;;;;;1.88;1.10;;;17.70;65.80;;;;;;5008115;28;20250;-60
2022/05/16 01:18:38;;;;;;;1.42;1.20;;;17.80;65.80;;;;;;5005664;28;20625;-61
2022/05/16 01:21:25;;;;;;;0.90;0.80;;;17.80;65.70;;;;;;5009059;28;20243;-61
2022/05/16 01:24:01;;;;;;;1.42;1.10;;;17.80;65.70;;;;;;5008178;28;20298;-61
2022/05/16 01:26:34;;;;;;;1.10;1.00;;;17.80;65.70;;;;;;5007458;28;20227;-61
2022/05/16 01:29:05;;;;;;;1.10;1.00;;;17.90;65.80;;;;;;5007682;28;20288;-60
2022/05/16 01:31:36;;;;;;;1.42;1.00;;;17.80;65.80;;;;;;5008314;28;20735;-61
2022/05/16 01:34:07;;;;;;;1.40;1.13;;;17.90;65.90;;;;;;5008333;28;20196;-60
2022/05/16 01:36:39;;;;;;;1.55;1.15;;;17.90;65.80;;;;;;5008101;28;20244;-61
2022/05/16 01:39:11;;;;;;;1.15;1.05;;;17.90;65.70;;;;;;5008316;28;20200;-61
2022/05/16 01:41:42;;;;;;;1.73;1.10;;;17.90;65.70;;;;;;5008950;28;20251;-60
2022/05/16 01:44:12;;;;;;;1.48;1.20;;;18.00;65.70;;;;;;5007745;28;20251;-61
2022/05/16 01:46:43;;;;;;;1.23;1.00;;;18.00;65.70;;;;;;5007947;28;20189;-61
2022/05/16 01:49:14;;;;;;;1.30;1.00;;;18.00;65.60;;;;;;5008354;28;20193;-60
2022/05/16 01:51:45;;;;;;;1.63;1.10;;;18.00;65.60;;;;;;5008443;28;20653;-61
2022/05/16 01:54:18;;;;;;;1.50;1.10;;;18.00;65.50;;;;;;5008694;28;20232;-60
2022/05/16 01:56:48;;;;;;;1.20;1.10;;;18.10;65.60;;;;;;5007900;28;20205;-60
2022/05/16 01:59:19;;;;;;;1.17;1.00;;;18.10;65.60;;;;;;5005570;28;20283;-61
2022/05/16 02:01:49;;;;;;;1.60;1.10;;;18.10;65.50;;;;;;5007133;28;20193;-60
2022/05/16 02:04:20;;;;;;;1.10;0.90;;;18.10;65.50;;;;;;5008591;28;20193;-60
2022/05/16 02:06:51;;;;;;;1.33;1.10;;;18.10;65.50;;;;;;5007779;28;20279;-60
2022/05/16 02:09:23;;;;;;;2.13;1.08;;;18.20;65.60;;;;;;5007984;28;20632;-61
2022/05/16 02:11:54;;;;;;;1.20;1.00;;;18.20;65.60;;;;;;5008055;28;20197;-59
2022/05/16 02:14:25;;;;;;;1.15;1.00;;;18.20;65.60;;;;;;5008193;28;20194;-60
2022/05/16 02:16:56;;;;;;;1.00;0.90;;;18.20;65.50;;;;;;4996472;28;20201;-60
2022/05/16 02:19:26;;;;;;;1.23;1.10;;;18.30;65.60;;;;;;4991276;28;20218;-59
2022/05/16 02:24:45;;;;;;;1.60;1.30;;;18.30;65.40;;;;;;5006580;28;20203;-60
2022/05/16 02:27:18;;;;;;;1.40;1.20;;;18.40;65.40;;;;;;5003756;28;20201;-61
2022/05/16 02:29:49;;;;;;;1.20;0.98;;;18.40;65.50;;;;;;5007567;28;20235;-60
2022/05/16 02:32:19;;;;;;;1.10;0.90;;;18.40;65.50;;;;;;5011652;28;20306;-60
2022/05/16 02:34:50;;;;;;;1.23;1.13;;;18.50;65.50;;;;;;5011396;28;20259;-61
2022/05/16 02:37:20;;;;;;;1.38;1.17;;;18.50;65.40;;;;;;5011529;28;20196;-60
2022/05/16 02:39:53;;;;;;;1.10;1.00;;;18.50;65.40;;;;;;5010748;28;20229;-59
2022/05/16 02:42:23;;;;;;;1.10;1.00;;;18.50;65.40;;;;;;5011264;28;20244;-59
2022/05/16 02:44:54;;;;;;;1.20;1.10;;;18.60;65.30;;;;;;5010503;28;20189;-60
2022/05/16 02:47:26;;;;;;;1.10;1.00;;;18.60;65.30;;;;;;5010659;28;20197;-60
2022/05/16 02:49:56;;;;;;;1.45;1.10;;;18.70;65.40;;;;;;5010821;28;20331;-60
2022/05/16 02:52:27;;;;;;;1.48;1.13;;;18.70;65.40;;;;;;5010269;28;20208;-60
2022/05/16 02:55:02;;;;;;;1.70;1.20;;;18.70;65.40;;;;;;5011361;28;20240;-60
2022/05/16 02:57:33;;;;;;;1.02;1.00;;;18.70;65.40;;;;;;5010860;28;20193;-60
2022/05/16 03:00:05;;;;;;;1.33;1.00;;;18.80;65.40;;;;;;5011145;28;20232;-60
2022/05/16 03:02:35;;;;;;;1.33;1.10;;;18.80;65.40;;;;;;5010459;28;20231;-60
2022/05/16 03:05:06;;;;;;;1.98;1.20;;;18.90;65.50;;;;;;5011252;28;20201;-59
2022/05/16 03:07:37;;;;;;;1.33;1.20;;;18.90;65.50;;;;;;5011158;28;20229;-59
2022/05/16 03:10:15;;;;;;;1.10;1.00;;;19.00;65.50;;;;;;5010537;28;20271;-60
2022/05/16 03:12:47;;;;;;;1.85;1.00;;;19.00;65.40;;;;;;5010615;28;20197;-59
2022/05/16 03:15:21;;;;;;;1.10;1.00;;;19.00;65.30;;;;;;5008796;28;20843;-60
2022/05/16 03:17:51;;;;;;;1.75;1.10;;;19.10;65.30;;;;;;5010264;28;20251;-60
2022/05/16 03:20:22;;;;;;;0.90;0.80;;;19.10;65.20;;;;;;5010609;28;20286;-61
2022/05/16 03:22:52;;;;;;;1.20;1.10;;;19.10;65.20;;;;;;5010438;28;20669;-59
2022/05/16 03:25:25;;;;;;;1.23;1.13;;;19.10;65.10;;;;;;4994857;28;20202;-59
2022/05/16 03:27:56;;;;;;;2.05;1.50;;;19.20;65.10;;;;;;4994666;28;20197;-60
2022/05/16 03:30:26;;;;;;;1.30;1.10;;;19.20;65.00;;;;;;4994072;28;20217;-60
2022/05/16 03:32:57;;;;;;;1.48;1.30;;;19.20;64.90;;;;;;4993858;28;20210;-59
2022/05/16 03:35:28;;;;;;;1.23;1.00;;;19.30;65.00;;;;;;4993628;28;20295;-59
2022/05/16 03:37:58;;;;;;;1.60;1.25;;;19.30;65.00;;;;;;4993631;28;20232;-60
2022/05/16 03:40:45;;;;;;;1.60;1.38;;;19.30;65.00;;;;;;4992933;28;20237;-60
2022/05/16 03:43:16;;;;;;;1.92;1.60;;;19.40;65.00;;;;;;4992176;28;20295;-59
2022/05/16 03:45:47;;;;;;;2.20;1.70;;;19.40;64.90;;;;;;4993549;28;20205;-60
2022/05/16 03:48:18;;;;;;;2.97;2.10;;;19.40;64.90;;;;;;4993285;28;20252;-59
2022/05/16 03:50:48;;;;;;;3.20;2.15;;;19.40;64.90;;;;;;4992777;28;20239;-58
2022/05/16 03:53:22;;;;;;;2.85;2.50;;;19.50;64.90;;;;;;4973769;28;20198;-59
2022/05/16 03:55:54;;;;;;;2.90;2.60;;;19.50;64.80;;;;;;4994506;28;20281;-58
2022/05/16 03:58:25;;;;;;;2.90;2.53;;;19.50;64.70;;;;;;5012752;28;20204;-60
2022/05/16 04:00:56;;;;;;;2.13;1.92;;;19.50;64.70;;;;;;5012758;28;20315;-60
2022/05/16 04:03:27;;;;;;;2.58;2.20;;;19.50;64.70;;;;;;5013063;28;20201;-60
2022/05/16 04:05:57;;;;;;;2.80;2.28;;;19.50;64.60;;;;;;5013170;28;20205;-58
2022/05/16 04:08:28;;;;;;;2.97;2.53;;;19.60;64.60;;;;;;5012952;28;20196;-59
2022/05/16 04:11:02;;;;;;;2.58;2.10;;;19.60;64.60;;;;;;4998140;28;20688;-60
2022/05/16 04:13:32;;;;;;;2.50;2.22;;;19.60;64.60;;;;;;4993030;28;20260;-59
2022/05/16 04:16:03;;;;;;;2.97;2.50;;;19.60;64.50;;;;;;4993203;28;20205;-59
2022/05/16 04:18:35;;;;;;;3.55;2.45;;;19.60;64.50;;;;;;4993015;28;20657;-59
2022/05/16 04:21:05;;;;;;;3.60;2.85;;;19.70;64.60;;;;;;4992811;28;20316;-61
2022/05/16 04:23:36;;;;;;;3.90;2.85;;;19.70;64.60;;;;;;5000298;28;20247;-59
2022/05/16 04:26:08;;;;;;;3.85;2.92;;;19.70;64.80;;;;;;5005694;28;20666;-59
2022/05/16 04:28:39;;;;;;;3.20;2.75;;;19.70;64.80;;;;;;5006896;28;20193;-59
2022/05/16 04:31:09;;;;;;;3.95;3.10;;;19.80;64.80;;;;;;5009588;28;20282;-60
2022/05/16 04:33:40;;;;;;;4.60;3.15;;;19.80;64.80;;;;;;5009645;28;20255;-58
2022/05/16 04:36:11;;;;;;;2.90;2.60;;;19.80;64.80;;;;;;5009412;28;20197;-59
2022/05/16 04:38:41;;;;;;;4.25;2.90;;;19.80;64.80;;;;;;5009105;28;20196;-60
2022/05/16 04:44:00;;;;;;;4.18;2.67;;;19.80;64.70;;;;;;5009277;28;20195;-59
2022/05/16 04:46:31;;;;;;;3.70;2.70;;;19.80;64.60;;;;;;5008710;28;20263;-59
2022/05/16 04:49:02;;;;;;;3.25;2.67;;;19.80;64.60;;;;;;5009426;28;20193;-61
2022/05/16 04:51:33;;;;;;;4.53;2.58;;;19.80;64.50;;;;;;5008763;28;20200;-60
2022/05/16 04:54:03;;;;;;;2.65;2.30;;;19.80;64.50;;;;;;5003728;28;20193;-59
2022/05/16 04:56:36;;;;;;;3.30;2.70;;;19.80;64.50;;;;;;5008215;28;20267;-60
2022/05/16 04:59:07;;;;;;;3.00;2.45;;;19.80;64.50;;;;;;5008448;28;20576;-60
2022/05/16 05:01:37;;;;;;;2.80;2.40;;;19.90;64.50;;;;;;5009133;28;20224;-59
2022/05/16 05:04:08;;;;;;;3.85;2.60;;;19.80;64.30;;;;;;5008617;28;20263;-60
2022/05/16 05:06:39;;;;;;;4.22;2.60;;;19.80;64.30;;;;;;5008848;28;20193;-61
2022/05/16 05:09:10;;;;;;;3.08;2.50;;;19.80;64.30;;;;;;5007692;28;20280;-59
2022/05/16 05:14:35;;;;;;;3.15;2.47;;;19.80;64.20;;;;;;5008283;28;20208;-58
2022/05/16 05:17:07;;;;;;;2.88;2.50;;;19.80;64.10;;;;;;5008153;28;20193;-60
2022/05/16 05:19:39;;;;;;;4.45;2.50;;;19.80;64.20;;;;;;5008579;28;20267;-59
2022/05/16 05:22:10;;;;;;;2.67;2.47;;;19.80;64.20;;;;;;5008862;28;20216;-60
2022/05/16 05:24:40;;;;;;;3.85;2.67;;;19.80;64.10;;;;;;5008465;28;20244;-60
2022/05/16 05:27:13;;;;;;;2.70;2.45;;;19.80;64.10;;;;;;5008488;28;20263;-59
2022/05/16 05:29:43;;;;;;;4.18;2.60;;;19.80;64.10;;;;;;5007799;28;20221;-60
2022/05/16 05:32:14;;;;;;;4.03;2.83;;;19.80;64.10;;;;;;5005168;28;20224;-60
2022/05/16 05:34:45;;;;;;;2.50;2.30;;;19.80;64.00;;;;;;5007147;28;20200;-60
2022/05/16 05:37:16;;;;;;;3.78;2.60;;;19.80;64.00;;;;;;5007113;28;20224;-59
2022/05/16 05:39:46;;;;;;;3.05;2.75;;;19.80;63.90;;;;;;5008469;28;20231;-60
2022/05/16 05:42:19;;;;;;;2.88;2.47;;;19.80;63.90;;;;;;5007944;28;20224;-59
2022/05/16 05:44:49;;;;;;;4.43;2.50;;;19.70;63.80;;;;;;5005527;28;21010;-59
2022/05/16 05:47:20;;;;;;;4.03;2.28;;;19.80;63.80;;;;;;5000933;28;20198;-60
2022/05/16 05:49:51;;;;;;;3.75;2.72;;;19.80;63.70;;;;;;5007388;28;20282;-60
2022/05/16 05:52:22;;;;;;;3.88;3.15;;;19.70;63.60;;;;;;5004707;28;20201;-59
2022/05/16 05:54:52;;;;;;;3.33;2.67;;;19.70;63.70;;;;;;5004582;28;20244;-59
2022/05/16 05:57:25;;;;;;;3.63;2.80;;;19.70;63.60;;;;;;5001624;28;20229;-59
2022/05/16 05:59:56;;;;;;;3.97;3.08;;;19.70;63.60;;;;;;5003507;28;20263;-59
2022/05/16 06:02:26;;;;;;;3.97;3.40;;;19.70;63.70;;;;;;5007377;28;20294;-59
2022/05/16 06:04:57;;;;;;;3.30;3.00;;;19.60;63.60;;;;;;5006583;28;20741;-59
2022/05/16 06:07:27;;;;;;;4.13;3.20;;;19.60;63.60;;;;;;5009180;28;20228;-59
2022/05/16 06:09:58;;;;;;;3.95;3.28;;;19.60;63.50;;;;;;5009154;28;20244;-59
2022/05/16 06:12:30;;;;;;;5.65;3.80;;;19.60;63.50;;;;;;5011766;28;20193;-59
2022/05/16 06:15:01;;;;;;;6.20;4.03;;;19.60;63.40;;;;;;5011569;28;20201;-59
2022/05/16 06:17:32;;;;;;;4.40;3.72;;;19.50;63.30;;;;;;5009966;28;20207;-59
2022/05/16 06:20:02;;;;;;;5.05;4.13;;;19.50;63.30;;;;;;5007908;28;20294;-60
2022/05/16 06:22:34;;;;;;;5.32;3.83;;;19.50;63.30;;;;;;5010794;28;20220;-60
2022/05/16 06:27:53;;;;;;;5.07;4.53;;;19.50;63.40;;;;;;5010995;28;20304;-60
2022/05/16 06:30:24;;;;;;;6.32;4.72;;;19.50;63.40;;;;;;5008943;28;20224;-60
2022/05/16 06:32:54;;;;;;;6.38;4.85;;;19.50;63.40;;;;;;5011023;28;20231;-60
2022/05/16 06:35:25;;;;;;;5.97;4.75;;;19.40;63.30;;;;;;5011236;28;20201;-60
2022/05/16 06:37:56;;;;;;;6.13;4.82;;;19.40;63.80;;;;;;5011458;28;20236;-60
2022/05/16 06:40:26;;;;;;;8.77;5.35;;;19.40;63.30;;;;;;5010444;28;20704;-60
2022/05/16 06:42:59;;;;;;;7.75;5.25;;;19.30;63.30;;;;;;5011179;28;20291;-59
2022/05/16 06:45:30;;;;;;;6.15;5.20;;;19.40;63.30;;;;;;5009902;28;20282;-60
2022/05/16 06:48:01;;;;;;;5.97;4.78;;;19.30;63.30;;;;;;5010683;28;20753;-58
2022/05/16 06:50:32;;;;;;;5.72;4.85;;;19.30;63.40;;;;;;5010406;28;20212;-59
2022/05/16 06:53:04;;;;;;;5.38;4.60;;;19.30;63.40;;;;;;5011066;28;20197;-55
2022/05/16 06:55:35;;;;;;;7.93;5.63;;;19.30;63.40;;;;;;5010110;28;20193;-59
2022/05/16 06:58:07;;;;;;;6.53;5.07;;;19.30;63.50;;;;;;5010837;28;20282;-59
2022/05/16 07:00:38;;;;;;;7.07;5.40;;;19.30;63.50;;;;;;5010767;28;20213;-59
2022/05/16 07:03:09;;;;;;;6.43;4.80;;;19.20;63.40;;;;;;5010586;28;20193;-60
2022/05/16 07:05:39;;;;;;;6.25;5.25;;;19.20;63.30;;;;;;5010694;28;20280;-60
2022/05/16 07:08:11;;;;;;;6.13;4.93;;;19.20;63.30;;;;;;5010795;28;20263;-60
2022/05/16 07:10:42;;;;;;;5.97;4.68;;;19.20;63.30;;;;;;5010518;28;20569;-59
2022/05/16 07:13:15;;;;;;;6.70;5.28;;;19.10;63.30;;;;;;5010297;28;20196;-60
2022/05/16 07:15:46;;;;;;;6.45;5.05;;;19.20;63.20;;;;;;5010304;28;20243;-59
2022/05/16 07:18:16;;;;;;;7.47;5.10;;;19.20;63.20;;;;;;5009524;28;20193;-61
2022/05/16 07:20:47;;;;;;;5.70;4.80;;;19.10;63.10;;;;;;5010699;28;20217;-60
2022/05/16 07:23:18;;;;;;;6.30;4.82;;;19.10;63.20;;;;;;5010412;28;20596;-60
2022/05/16 07:28:37;;;;;;;6.25;4.97;;;19.10;63.20;;;;;;5010523;28;20199;-60
2022/05/16 07:31:09;;;;;;;5.90;5.10;;;19.00;63.10;;;;;;5010765;28;20275;-60
2022/05/16 07:33:39;;;;;;;5.22;4.72;;;19.00;63.20;;;;;;5010267;28;20213;-59
2022/05/16 07:36:10;;;;;;;5.75;4.68;;;19.00;63.20;;;;;;5010357;28;20201;-60
2022/05/16 07:38:41;;;;;;;4.72;4.22;;;19.00;63.30;;;;;;5009409;28;20189;-60
2022/05/16 07:41:12;;;;;;;6.97;4.95;;;19.00;63.30;;;;;;5007253;28;20295;-59
2022/05/16 07:43:44;;;;;;;6.13;4.85;;;19.00;63.40;;;;;;5009887;28;20263;-59
2022/05/16 07:46:15;;;;;;;5.95;4.90;;;18.90;63.30;;;;;;5009371;28;20193;-60
2022/05/16 07:48:45;;;;;;;5.57;4.72;;;18.90;63.30;;;;;;5002881;28;20642;-60
2022/05/16 07:51:16;;;;;;;5.32;4.60;;;18.90;64.10;;;;;;4993499;28;20272;-60
2022/05/16 07:53:46;;;;;;;5.80;4.53;;;18.90;63.20;;;;;;4993576;28;20252;-59
2022/05/16 07:56:17;;;;;;;5.15;4.65;;;18.90;63.20;;;;;;4993371;28;20197;-59
2022/05/16 07:58:53;;;;;;;5.85;4.90;;;18.90;63.20;;;;;;4993317;28;20255;-59
2022/05/16 08:01:24;;;;;;;4.95;4.45;;;18.80;63.20;;;;;;4992795;28;20228;-60
2022/05/16 08:03:54;;;;;;;5.55;4.75;;;18.80;63.20;;;;;;4992457;28;20189;-59
2022/05/16 08:06:27;;;;;;;5.53;4.40;;;18.80;63.20;;;;;;4992771;28;20717;-60
2022/05/16 08:11:44;;;;;;;5.03;4.43;;;18.80;63.30;;;;;;4993260;28;20201;-60
2022/05/16 08:14:17;;;;;;;4.90;4.30;;;18.80;63.20;;;;;;4992965;28;20248;-60
2022/05/16 08:16:47;;;;;;;5.63;4.30;;;18.70;63.20;;;;;;4992134;28;20197;-60
2022/05/16 08:19:19;;;;;;;5.22;4.20;;;18.70;63.20;;;;;;4992051;28;20259;-59
2022/05/16 08:21:50;;;;;;;4.93;4.43;;;18.70;63.20;;;;;;4992475;28;20316;-60
2022/05/16 08:24:20;;;;;;;5.13;4.25;;;18.70;63.30;;;;;;4991999;28;20322;-60
2022/05/16 08:26:54;;;;;;;6.45;4.72;;;18.60;63.30;;;;;;4998772;28;20598;-60
2022/05/16 08:29:26;;;;;;;4.63;4.05;;;18.60;63.30;;;;;;5011683;28;20216;-60
2022/05/16 08:31:57;;;;;;;5.25;4.43;;;18.60;63.30;;;;;;5011977;28;20196;-60
2022/05/16 08:34:28;;;;;;;5.40;4.30;;;18.60;63.30;;;;;;5004491;28;20322;-60
2022/05/16 08:39:55;;;;;;;5.10;4.25;;;18.60;63.30;;;;;;4992452;28;20223;-59
2022/05/16 08:42:33;;;;;;;5.00;4.00;;;18.60;63.30;;;;;;4992539;28;20235;-57
2022/05/16 08:45:07;;;;;;;2.63;2.30;;;18.60;63.30;;;;;;4992166;28;20671;-53
2022/05/16 08:47:46;;;;;;;3.05;2.33;;;18.50;60.60;;;;;;4992396;28;20196;-60
2022/05/16 08:50:21;;;;;;;2.70;2.50;;;18.40;58.90;;;;;;4991860;28;20256;-60
2022/05/16 08:52:57;;;;;;;2.88;2.67;;;18.30;59.00;;;;;;4988497;28;20252;-60
2022/05/16 08:55:35;;;;;;;2.42;2.22;;;18.20;59.30;;;;;;5006155;28;20602;-61
2022/05/16 08:58:11;;;;;;;2.50;2.30;;;18.10;59.50;;;;;;5004702;28;20251;-60
2022/05/16 09:00:49;;;;;;;2.60;2.40;;;18.00;59.70;;;;;;5008164;28;20247;-60
2022/05/16 09:03:24;;;;;;;2.35;2.10;;;18.00;59.80;;;;;;5009578;28;20589;-59
2022/05/16 09:06:01;;;;;;;2.65;2.45;;;18.00;60.00;;;;;;5008067;28;20239;-60
2022/05/16 09:08:41;;;;;;;2.53;2.33;;;17.90;60.10;;;;;;5008872;28;20196;-60
2022/05/16 09:11:14;;;;;;;3.05;2.25;;;17.90;60.30;;;;;;5007074;28;20220;-60
2022/05/16 09:13:56;;;;;;;3.20;2.67;;;17.90;60.40;;;;;;5004263;28;20724;-59
2022/05/16 09:16:46;;;;;;;2.00;1.83;;;17.90;60.60;;;;;;5008006;28;20271;-60
2022/05/16 09:19:48;;;;;;;2.15;1.95;;;17.80;60.70;;;;;;5008602;28;20193;-60
2022/05/16 09:22:24;;;;;;;2.20;2.00;;;17.80;61.00;;;;;;5008123;28;20263;-60
2022/05/16 09:24:58;;;;;;;2.38;2.17;;;17.80;60.90;;;;;;5005926;28;20263;-60
2022/05/16 09:30:21;;;;;;;2.58;2.38;;;17.80;61.10;;;;;;5008742;28;20620;-60
2022/05/16 09:32:59;;;;;;;3.08;2.10;;;17.80;61.20;;;;;;5008594;28;20197;-61
2022/05/16 09:35:39;;;;;;;2.42;2.22;;;17.80;61.30;;;;;;5007832;28;20259;-61
2022/05/16 09:38:10;;;;;;;1.90;1.75;;;17.70;61.30;;;;;;5007960;28;20193;-61
2022/05/16 09:40:42;;;;;;;2.38;2.17;;;17.70;61.40;;;;;;5010959;28;20251;-61
2022/05/16 09:43:20;;;;;;;2.20;2.00;;;17.70;61.50;;;;;;5009025;28;20509;-61
2022/05/16 09:45:55;;;;;;;2.83;2.15;;;17.70;61.50;;;;;;5011777;28;20225;-60
2022/05/16 09:48:28;;;;;;;2.10;2.00;;;17.70;61.50;;;;;;5010786;28;20601;-59
2022/05/16 09:51:03;;;;;;;2.15;1.95;;;17.70;61.60;;;;;;5011208;28;20879;-59
2022/05/16 09:53:36;;;;;;;2.33;2.10;;;17.60;61.50;;;;;;5012542;28;20362;-60
2022/05/16 09:56:10;;;;;;;2.33;2.13;;;17.60;61.60;;;;;;5010489;28;20560;-59
2022/05/16 09:58:51;;;;;;;2.13;1.92;;;17.60;61.70;;;;;;5011812;28;20558;-59
2022/05/16 10:01:37;;;;;;;2.22;2.08;;;17.60;61.80;;;;;;5012203;28;20212;-59
2022/05/16 10:04:15;;;;;;;2.38;2.17;;;17.60;61.90;;;;;;5011862;28;20205;-60
2022/05/16 10:06:58;;;;;;;2.55;2.10;;;17.60;62.00;;;;;;5007903;28;20201;-59
2022/05/16 10:09:33;;;;;;;2.28;2.08;;;17.60;62.10;;;;;;5006322;28;20220;-60
2022/05/16 10:12:06;;;;;;;2.15;2.00;;;17.60;62.10;;;;;;5007829;28;20285;-61
2022/05/16 10:14:37;;;;;;;2.58;2.03;;;17.60;62.10;;;;;;5008867;28;20193;-61
2022/05/16 10:17:10;;;;;;;2.00;1.90;;;17.60;62.10;;;;;;5008792;28;20203;-61
2022/05/16 10:19:43;;;;;;;1.98;1.77;;;17.50;62.10;;;;;;5011474;28;20279;-60
2022/05/16 10:22:19;;;;;;;2.47;2.20;;;17.50;62.10;;;;;;5011517;28;20349;-60
2022/05/16 10:24:53;;;;;;;2.10;1.90;;;17.60;62.10;;;;;;5008790;28;20280;-61
2022/05/16 10:27:31;;;;;;;2.10;1.90;;;17.50;62.10;;;;;;5011794;28;20203;-61
2022/05/16 10:30:06;;;;;;;2.50;2.30;;;17.50;62.10;;;;;;5009995;28;20303;-61
2022/05/16 10:35:32;;;;;;;1.90;1.80;;;17.50;62.10;;;;;;5011637;28;20673;-61
2022/05/16 10:38:08;;;;;;;2.13;1.90;;;17.50;62.10;;;;;;5011654;28;20282;-61
2022/05/16 10:40:43;;;;;;;3.03;1.83;;;17.50;62.10;;;;;;5010406;28;20209;-61
2022/05/16 10:43:38;;;;;;;2.33;2.13;;;17.50;62.20;;;;;;5010689;28;20355;-61
2022/05/16 10:46:13;;;;;;;2.30;1.75;;;17.50;63.00;;;;;;5010980;28;20189;-60
2022/05/16 10:48:53;;;;;;;2.20;1.88;;;17.40;62.20;;;;;;5009154;28;20262;-60
2022/05/16 10:51:35;;;;;;;2.08;1.80;;;17.40;62.20;;;;;;5010960;28;20219;-61
2022/05/16 10:54:08;;;;;;;1.98;1.70;;;17.40;62.20;;;;;;5010912;28;20255;-61
2022/05/16 10:56:58;;;;;;;1.90;1.70;;;17.40;62.20;;;;;;5011445;28;20193;-61
2022/05/16 11:00:09;;;;;;;1.88;1.77;;;17.40;62.20;;;;;;5010116;28;20291;-61
2022/05/16 11:03:15;;;;;;;1.90;1.80;;;17.40;62.20;;;;;;4995061;28;20231;-60
2022/05/16 11:05:59;;;;;;;1.85;1.75;;;17.40;62.20;;;;;;5009284;28;20255;-60
2022/05/16 11:08:39;;;;;;;2.17;1.98;;;17.40;62.20;;;;;;5010812;28;20259;-60
2022/05/16 11:11:16;;;;;;;2.30;1.67;;;17.30;62.10;;;;;;5009112;28;20212;-61
2022/05/16 11:13:50;;;;;;;1.88;1.65;;;17.30;62.10;;;;;;5009214;28;20295;-61
2022/05/16 11:16:24;;;;;;;1.75;1.65;;;17.30;62.10;;;;;;5007133;28;20282;-61
2022/05/16 11:19:00;;;;;;;2.00;1.80;;;17.30;62.10;;;;;;5007556;28;20197;-60
2022/05/16 11:21:46;;;;;;;1.60;1.50;;;17.30;62.20;;;;;;5009320;28;20247;-60
2022/05/16 11:24:31;;;;;;;1.80;1.70;;;17.30;62.30;;;;;;5005349;28;20232;-60
2022/05/16 11:27:12;;;;;;;2.00;1.80;;;17.30;62.20;;;;;;5008875;28;20258;-60
2022/05/16 11:29:55;;;;;;;1.70;1.60;;;17.30;62.10;;;;;;5009651;28;20209;-61
2022/05/16 11:32:40;;;;;;;1.90;1.80;;;17.20;62.10;;;;;;5009706;28;20232;-60
2022/05/16 11:35:16;;;;;;;1.60;1.50;;;17.20;62.10;;;;;;5007328;28;20231;-60
2022/05/16 11:38:01;;;;;;;1.83;1.73;;;17.30;62.20;;;;;;5010213;28;20193;-60
2022/05/16 11:40:39;;;;;;;2.00;1.80;;;17.20;62.20;;;;;;5010928;28;20213;-61
2022/05/16 11:43:15;;;;;;;1.65;1.55;;;17.20;62.20;;;;;;5008943;28;20221;-60
2022/05/16 11:46:17;;;;;;;1.60;1.50;;;17.20;62.20;;;;;;5006952;28;20200;-60
2022/05/16 11:48:56;;;;;;;1.83;1.70;;;17.20;62.20;;;;;;5002987;28;20215;-60
2022/05/16 11:51:40;;;;;;;1.85;1.70;;;17.20;62.20;;;;;;5009025;28;20205;-59
2022/05/16 11:54:12;;;;;;;1.60;1.50;;;17.20;62.20;;;;;;5008309;28;20279;-60
2022/05/16 12:02:37;;;;;;;2.72;2.00;;;17.10;62.20;;;;;;4989439;28;20264;-60
2022/05/16 12:05:14;;;;;;;1.88;1.67;;;17.10;62.20;;;;;;4970228;28;20194;-60
2022/05/16 12:07:48;;;;;;;2.28;2.08;;;17.10;62.20;;;;;;4988245;28;20251;-60
2022/05/16 12:10:26;;;;;;;1.92;1.73;;;17.10;62.20;;;;;;4988461;28;20244;-60
2022/05/16 12:13:24;;;;;;;2.20;1.90;;;17.10;62.20;;;;;;4989317;28;20193;-60
2022/05/16 12:16:19;;;;;;;2.38;1.88;;;17.10;62.20;;;;;;4969581;28;20261;-61
2022/05/16 12:18:51;;;;;;;2.25;1.85;;;17.00;62.10;;;;;;4986194;28;20198;-60
2022/05/16 12:21:35;;;;;;;2.10;1.90;;;17.00;62.10;;;;;;4989711;28;20225;-60
2022/05/16 12:25:00;;;;;;;2.28;1.98;;;17.00;62.20;;;;;;5167926;27;20512;-60
2022/05/16 12:27:34;;;;;;;2.13;1.92;;;17.00;62.20;;;;;;5139634;27;20198;-60
2022/05/16 12:30:08;;;;;;;2.38;2.17;;;17.00;62.20;;;;;;5148443;27;20216;-60
2022/05/16 12:32:59;;;;;;;2.00;1.90;;;17.00;62.20;;;;;;5148618;27;20252;-60
2022/05/16 12:35:44;;;;;;;1.90;1.70;;;17.00;62.20;;;;;;5148640;27;20196;-60
2022/05/16 12:38:18;;;;;;;2.80;2.10;;;16.90;62.10;;;;;;5148717;27;20248;-60
2022/05/16 12:44:32;;;;;;;2.08;1.70;;;16.90;62.20;;;;;;5126268;27;20217;-60
2022/05/16 12:47:19;;;;;;;2.03;1.85;;;16.90;62.10;;;;;;5148221;27;20192;-60
2022/05/16 12:50:09;;;;;;;1.80;1.70;;;16.90;62.10;;;;;;5148289;27;20265;-59
2022/05/16 12:53:08;;;;;;;1.90;1.65;;;16.90;62.10;;;;;;5148523;27;20658;-60
2022/05/16 12:55:58;;;;;;;2.38;1.77;;;16.80;62.10;;;;;;5148286;27;20200;-60
2022/05/16 12:58:35;;;;;;;2.00;1.80;;;16.90;62.10;;;;;;5147955;27;20537;-59
2022/05/16 13:01:22;;;;;;;2.10;1.77;;;16.80;62.20;;;;;;5147815;27;20272;-59
2022/05/16 13:04:03;;;;;;;1.45;1.35;;;16.80;62.20;;;;;;5148180;27;20226;-60
2022/05/16 13:06:50;;;;;;;2.15;1.90;;;16.80;62.20;;;;;;5148178;27;20196;-60
2022/05/16 13:09:38;;;;;;;1.63;1.52;;;16.80;62.30;;;;;;5147775;27;20220;-60
2022/05/16 13:12:17;;;;;;;1.80;1.70;;;16.80;62.20;;;;;;5147967;27;20215;-60
2022/05/16 13:14:58;;;;;;;1.60;1.50;;;16.80;62.30;;;;;;5147484;27;20724;-59
2022/05/16 13:17:35;;;;;;;1.88;1.65;;;16.80;62.30;;;;;;5148059;27;20192;-59
2022/05/16 13:20:08;;;;;;;1.77;1.52;;;16.80;62.30;;;;;;5147795;27;20219;-60
2022/05/16 13:22:42;;;;;;;2.05;1.63;;;16.80;62.30;;;;;;5147843;27;20570;-60
2022/05/16 13:25:13;;;;;;;1.98;1.75;;;16.80;62.30;;;;;;5147807;27;20188;-60
2022/05/16 13:30:38;;;;;;;2.65;1.65;;;16.70;62.20;;;;;;5147401;27;20239;-60
2022/05/16 13:33:26;;;;;;;1.60;1.50;;;16.70;62.20;;;;;;5147877;27;20246;-60
2022/05/16 13:35:57;;;;;;;2.08;1.83;;;16.70;62.30;;;;;;5133542;27;20242;-60
2022/05/16 13:38:39;;;;;;;2.00;1.50;;;16.70;62.20;;;;;;5133591;27;20188;-60
2022/05/16 13:41:10;;;;;;;1.88;1.70;;;16.70;62.20;;;;;;5133365;27;20212;-60
2022/05/16 13:43:42;;;;;;;1.63;1.52;;;16.70;62.20;;;;;;5130220;27;20220;-59
2022/05/16 13:46:15;;;;;;;1.65;1.55;;;16.70;62.30;;;;;;5133220;27;20466;-60
2022/05/16 13:48:56;;;;;;;1.58;1.30;;;16.70;62.30;;;;;;5133456;27;20649;-60
2022/05/16 13:51:26;;;;;;;1.60;1.50;;;16.70;62.30;;;;;;5133165;27;20207;-60
2022/05/16 13:53:57;;;;;;;1.83;1.73;;;16.70;62.30;;;;;;5133106;27;20253;-60
2022/05/16 13:56:42;;;;;;;2.28;1.50;;;16.70;62.30;;;;;;5133599;27;20292;-59
2022/05/16 13:59:13;;;;;;;1.60;1.50;;;16.70;62.40;;;;;;5132768;27;20235;-59
2022/05/16 14:01:54;;;;;;;1.90;1.55;;;16.70;62.30;;;;;;5133193;27;20244;-59
2022/05/16 14:04:31;;;;;;;1.70;1.60;;;16.70;62.30;;;;;;5132819;27;20248;-60
2022/05/16 14:07:10;;;;;;;1.60;1.50;;;16.70;62.30;;;;;;5132707;27;20196;-59